Time;durP1;ratioP1;P1;durP2;ratioP2;P2;SDS_P1;SDS_P2;PMS_P1;PMS_P2;Temp;Humidity;BMP_temperature;BMP_pressure;BME280_temperature;BME280_humidity;BME280_pressure;Samples;Min_cycle;Max_cycle;Signal;HPM_P1;HPM_P2
2021/06/16 00:01:47;;;;;;;5.13;1.92;;;;;;;22.66;40.58;101900.28;5000610;28;20115;-92
2021/06/16 00:04:12;;;;;;;8.15;2.15;;;;;;;22.69;40.53;101895.88;4998588;28;20039;-93
2021/06/16 00:06:37;;;;;;;5.70;2.10;;;;;;;22.69;40.67;101893.25;4998098;28;20041;-90
2021/06/16 00:09:04;;;;;;;7.57;2.38;;;;;;;22.70;40.73;101889.72;4997816;28;20480;-90
2021/06/16 00:11:30;;;;;;;7.03;2.28;;;;;;;22.68;40.48;101888.00;4998626;28;20034;-90
2021/06/16 00:13:56;;;;;;;8.88;2.20;;;;;;;22.63;40.90;101889.84;4998607;28;20085;-90
2021/06/16 00:16:22;;;;;;;7.85;2.28;;;;;;;22.69;40.72;101887.09;4980729;28;20051;-92
2021/06/16 00:18:47;;;;;;;6.97;2.00;;;;;;;22.79;40.70;101886.09;4997357;28;20018;-92
2021/06/16 00:21:14;;;;;;;8.10;2.00;;;;;;;22.73;40.67;101883.56;4980976;28;20056;-93
2021/06/16 00:23:40;;;;;;;6.90;2.38;;;;;;;22.67;40.89;101881.91;4981016;28;20035;-91
2021/06/16 00:26:06;;;;;;;7.75;2.13;;;;;;;22.76;40.95;101878.28;4997138;28;20031;-93
2021/06/16 00:28:32;;;;;;;7.03;2.10;;;;;;;22.82;40.92;101882.56;4997208;28;20025;-92
2021/06/16 00:30:57;;;;;;;4.95;2.03;;;;;;;22.85;40.88;101877.28;4980792;28;20027;-91
2021/06/16 00:33:23;;;;;;;9.00;2.55;;;;;;;22.89;40.75;101873.72;4996927;28;20031;-91
2021/06/16 00:35:48;;;;;;;5.00;2.10;;;;;;;22.92;40.75;101873.66;4996720;28;20030;-92
2021/06/16 00:38:13;;;;;;;7.55;2.30;;;;;;;22.88;40.80;101874.59;4980568;28;20076;-93
2021/06/16 00:40:39;;;;;;;7.53;2.45;;;;;;;22.72;41.13;101866.94;4980416;28;20030;-90
2021/06/16 00:43:05;;;;;;;8.85;2.50;;;;;;;22.78;41.09;101872.13;4997162;28;20026;-93
2021/06/16 00:45:30;;;;;;;6.97;2.30;;;;;;;22.84;40.86;101870.28;4981955;28;20420;-88
2021/06/16 00:47:56;;;;;;;5.63;2.20;;;;;;;22.85;41.04;101872.88;4981984;28;20058;-85
2021/06/16 00:50:34;;;;;;;5.68;2.22;;;;;;;22.82;41.32;101869.44;5013588;28;20037;-86
2021/06/16 00:53:01;;;;;;;8.13;2.78;;;;;;;22.71;41.66;101867.84;5005367;28;20026;-93
2021/06/16 00:55:27;;;;;;;5.57;2.13;;;;;;;22.68;41.68;101870.50;4997786;28;20113;-93
2021/06/16 00:57:53;;;;;;;7.65;2.40;;;;;;;22.62;41.92;101860.09;4997012;28;20061;-86
2021/06/16 01:00:22;;;;;;;10.18;2.45;;;;;;;22.62;41.92;101852.22;4981401;28;20045;-90
2021/06/16 01:02:54;;;;;;;8.32;2.75;;;;;;;22.58;41.92;101855.78;4996118;28;20098;-94
2021/06/16 01:05:22;;;;;;;8.40;2.55;;;;;;;22.66;41.96;101858.31;4996626;28;20023;-89
2021/06/16 01:07:55;;;;;;;6.40;2.28;;;;;;;22.57;41.96;101854.06;4996585;28;20030;-90
2021/06/16 01:10:23;;;;;;;9.82;3.10;;;;;;;22.57;42.33;101857.53;4997707;28;20018;-94
2021/06/16 01:13:14;;;;;;;8.73;3.00;;;;;;;22.57;42.43;101851.44;4996313;28;20133;-89
2021/06/16 01:15:53;;;;;;;7.82;2.80;;;;;;;22.58;42.22;101847.91;4995953;28;20042;-90
2021/06/16 01:18:20;;;;;;;7.68;2.83;;;;;;;22.62;42.00;101849.59;4996555;28;20101;-91
2021/06/16 01:20:49;;;;;;;9.38;3.13;;;;;;;22.58;42.22;101843.56;4997501;28;20026;-91
2021/06/16 01:23:31;;;;;;;8.27;2.65;;;;;;;22.61;42.15;101844.41;4998269;28;20045;-87
2021/06/16 01:26:03;;;;;;;8.73;2.90;;;;;;;22.67;42.19;101846.91;4998002;28;20453;-91
2021/06/16 01:28:41;;;;;;;6.10;2.83;;;;;;;22.67;42.12;101844.28;4996543;28;20038;-93
2021/06/16 01:31:09;;;;;;;7.45;2.70;;;;;;;22.66;42.47;101842.56;4996279;28;20026;-93
2021/06/16 01:33:37;;;;;;;8.02;2.97;;;;;;;22.51;42.70;101843.66;4997654;28;20030;-89
2021/06/16 01:36:03;;;;;;;6.88;2.78;;;;;;;22.49;42.80;101842.81;4996555;28;20397;-92
2021/06/16 01:38:29;;;;;;;13.13;2.85;;;;;;;22.49;43.02;101835.78;4996041;28;20027;-93
2021/06/16 01:40:59;;;;;;;8.75;2.85;;;;;;;22.41;43.19;101836.78;4979935;28;20026;-87
2021/06/16 01:43:29;;;;;;;8.77;3.22;;;;;;;22.42;43.41;101831.53;4995897;28;20481;-90
2021/06/16 01:45:58;;;;;;;10.25;3.00;;;;;;;22.46;43.08;101833.22;4996063;28;20022;-92
2021/06/16 01:48:24;;;;;;;8.80;2.97;;;;;;;22.52;42.97;101824.41;4996234;28;20030;-92
2021/06/16 01:50:52;;;;;;;7.60;2.70;;;;;;;22.49;43.16;101827.91;4996752;28;20031;-92
2021/06/16 01:53:19;;;;;;;9.73;3.10;;;;;;;22.44;43.21;101821.88;4997085;28;20176;-91
2021/06/16 01:55:47;;;;;;;10.90;3.20;;;;;;;22.45;43.55;101822.75;4983520;28;20532;-92
2021/06/16 01:58:16;;;;;;;7.43;2.95;;;;;;;22.44;43.58;101821.88;4996175;28;20064;-92
2021/06/16 02:00:42;;;;;;;8.90;3.10;;;;;;;22.39;43.65;101824.56;4996185;28;20030;-89
2021/06/16 02:03:08;;;;;;;11.20;3.03;;;;;;;22.42;43.64;101825.44;4995747;28;20047;-90
2021/06/16 02:05:34;;;;;;;10.15;3.30;;;;;;;22.36;43.66;101824.63;4995430;28;20027;-88
2021/06/16 02:08:02;;;;;;;7.00;2.95;;;;;;;22.28;43.79;101825.63;4995430;28;20033;-91
2021/06/16 02:10:33;;;;;;;10.48;3.40;;;;;;;22.24;43.96;101821.31;4995615;28;20030;-91
2021/06/16 02:13:02;;;;;;;10.15;3.17;;;;;;;22.23;43.93;101822.19;4994756;28;20026;-86
2021/06/16 02:15:34;;;;;;;7.68;2.97;;;;;;;22.20;44.09;101817.81;4994672;28;20528;-86
2021/06/16 02:18:00;;;;;;;8.52;2.90;;;;;;;22.17;44.03;101817.88;4994072;28;20117;-86
2021/06/16 02:20:27;;;;;;;8.77;2.63;;;;;;;22.17;44.05;101817.88;4993995;28;20102;-85
2021/06/16 02:22:53;;;;;;;6.85;2.65;;;;;;;22.19;44.31;101813.47;4993913;28;20085;-87
2021/06/16 02:25:19;;;;;;;8.57;3.00;;;;;;;22.15;44.52;101809.16;4993909;28;19921;-86
2021/06/16 02:27:45;;;;;;;9.32;2.90;;;;;;;22.12;44.64;101796.06;4995039;28;20110;-86
2021/06/16 02:30:11;;;;;;;11.50;3.25;;;;;;;22.09;44.69;101801.38;4993839;28;20018;-86
2021/06/16 02:32:37;;;;;;;10.43;3.17;;;;;;;22.08;44.27;101799.63;4993503;28;20030;-86
2021/06/16 02:35:04;;;;;;;8.50;3.15;;;;;;;22.17;44.53;101796.91;4961382;28;20245;-85
2021/06/16 02:37:30;;;;;;;8.65;3.40;;;;;;;22.13;44.53;101803.06;4993851;28;20105;-86
2021/06/16 02:40:01;;;;;;;8.85;3.00;;;;;;;22.07;44.57;101795.28;4993452;28;20366;-87
2021/06/16 02:42:27;;;;;;;8.35;3.20;;;;;;;22.06;44.91;101798.78;4993758;28;20062;-86
2021/06/16 02:44:53;;;;;;;6.38;3.17;;;;;;;22.02;45.04;101799.72;4993513;28;20034;-86
2021/06/16 02:47:20;;;;;;;8.07;2.97;;;;;;;21.96;44.98;101801.53;4993337;28;20113;-86
2021/06/16 02:49:49;;;;;;;7.60;2.70;;;;;;;21.99;45.16;101797.97;4994901;28;20030;-86
2021/06/16 02:52:18;;;;;;;10.32;3.25;;;;;;;21.98;45.23;101791.88;4993823;28;20137;-86
2021/06/16 02:54:46;;;;;;;7.22;2.90;;;;;;;22.00;45.26;101789.25;4995096;28;20022;-86
2021/06/16 02:57:18;;;;;;;7.15;2.78;;;;;;;22.00;45.16;101781.38;4993274;28;20424;-86
2021/06/16 02:59:46;;;;;;;10.30;3.20;;;;;;;22.03;45.06;101778.72;4993420;28;20038;-86
2021/06/16 03:02:13;;;;;;;7.18;2.80;;;;;;;21.99;45.12;101787.50;4993166;28;20018;-86
2021/06/16 03:04:40;;;;;;;7.93;2.97;;;;;;;22.01;45.03;101783.09;4977767;28;20053;-86
2021/06/16 03:07:05;;;;;;;6.75;2.92;;;;;;;21.98;45.16;101775.28;4976920;28;20061;-86
2021/06/16 03:09:31;;;;;;;6.68;2.67;;;;;;;22.00;44.95;101777.91;4976961;28;20030;-86
2021/06/16 03:11:59;;;;;;;6.03;2.72;;;;;;;21.97;44.75;101771.81;4993099;28;20034;-86
2021/06/16 03:14:25;;;;;;;7.95;3.42;;;;;;;21.97;45.11;101777.06;4996637;28;20030;-86
2021/06/16 03:16:52;;;;;;;9.43;2.80;;;;;;;21.95;45.09;101775.34;5004830;28;20030;-85
2021/06/16 03:19:20;;;;;;;14.48;3.45;;;;;;;21.92;45.16;101773.63;4996856;28;20041;-86
2021/06/16 03:21:46;;;;;;;8.32;2.78;;;;;;;21.98;45.07;101770.06;4996011;28;20065;-85
2021/06/16 03:24:13;;;;;;;7.80;2.78;;;;;;;22.06;44.64;101765.59;4980794;28;20030;-86
2021/06/16 03:26:39;;;;;;;6.18;2.72;;;;;;;22.01;44.89;101761.28;4994239;28;20026;-86
2021/06/16 03:29:06;;;;;;;6.93;2.78;;;;;;;22.01;44.96;101767.38;4977477;28;20027;-85
2021/06/16 03:31:32;;;;;;;4.93;2.78;;;;;;;21.99;44.97;101763.91;4993183;28;20034;-87
2021/06/16 03:33:58;;;;;;;9.65;2.83;;;;;;;21.92;44.86;101760.50;4993226;28;20033;-86
2021/06/16 03:36:25;;;;;;;10.75;3.42;;;;;;;21.92;44.87;101762.28;4977432;28;20493;-86
2021/06/16 03:38:51;;;;;;;10.00;3.20;;;;;;;21.89;44.85;101759.69;4994649;28;20166;-86
2021/06/16 03:41:17;;;;;;;10.82;3.45;;;;;;;21.90;44.96;101759.66;4992977;28;20490;-86
2021/06/16 03:43:46;;;;;;;7.22;2.95;;;;;;;21.91;44.93;101755.31;4984915;28;20030;-86
2021/06/16 03:46:12;;;;;;;8.98;3.28;;;;;;;21.88;45.01;101752.72;4994042;28;20053;-86
2021/06/16 03:48:39;;;;;;;13.18;3.30;;;;;;;21.88;44.89;101750.94;4977504;28;20466;-86
2021/06/16 03:51:05;;;;;;;8.52;3.22;;;;;;;21.87;44.97;101744.00;4993124;28;20026;-86
2021/06/16 03:53:31;;;;;;;11.48;3.25;;;;;;;21.92;44.91;101738.69;4995287;28;20064;-87
2021/06/16 03:55:58;;;;;;;10.73;3.20;;;;;;;21.90;44.86;101751.78;4976932;28;20058;-88
2021/06/16 03:58:24;;;;;;;6.47;2.58;;;;;;;21.97;44.32;101742.09;4977032;28;20037;-86
2021/06/16 04:00:50;;;;;;;8.93;2.60;;;;;;;22.10;44.36;101737.56;4976503;28;20106;-86
2021/06/16 04:03:16;;;;;;;6.53;2.75;;;;;;;22.14;44.12;101734.00;4993549;28;20030;-86
2021/06/16 04:05:42;;;;;;;12.80;3.05;;;;;;;22.09;44.16;101736.69;4960759;28;20035;-85
2021/06/16 04:08:10;;;;;;;9.98;2.97;;;;;;;22.19;43.84;101742.69;4992803;28;20027;-85
2021/06/16 04:10:36;;;;;;;6.70;2.90;;;;;;;22.15;43.94;101730.50;4992650;28;20030;-86
2021/06/16 04:13:03;;;;;;;6.50;2.78;;;;;;;22.08;43.99;101739.34;4993186;28;20110;-85
2021/06/16 04:15:29;;;;;;;10.20;2.65;;;;;;;22.14;43.83;101734.88;4976493;28;20518;-85
2021/06/16 04:17:58;;;;;;;7.82;2.40;;;;;;;22.13;43.89;101734.91;4992872;28;20018;-85
2021/06/16 04:20:24;;;;;;;7.53;2.88;;;;;;;22.17;43.77;101739.22;4977158;28;20057;-85
2021/06/16 04:22:50;;;;;;;6.90;2.85;;;;;;;22.21;43.69;101727.81;4992845;28;20081;-86
2021/06/16 04:25:15;;;;;;;7.47;2.78;;;;;;;22.18;43.54;101728.69;4960100;28;20030;-84
2021/06/16 04:27:41;;;;;;;5.32;2.00;;;;;;;22.23;43.37;101730.41;4976410;28;20389;-85
2021/06/16 04:30:10;;;;;;;10.48;2.50;;;;;;;22.12;43.67;101728.81;4992125;28;20026;-85
2021/06/16 04:32:36;;;;;;;11.45;2.28;;;;;;;22.19;43.53;101724.34;4992239;28;20034;-85
2021/06/16 04:35:02;;;;;;;5.97;2.30;;;;;;;22.33;43.44;101722.38;4976155;28;20034;-85
2021/06/16 04:37:27;;;;;;;9.30;2.90;;;;;;;22.32;43.50;101725.03;4978020;28;20175;-85
2021/06/16 04:39:53;;;;;;;11.85;2.40;;;;;;;22.33;43.14;101722.38;4979427;28;20066;-85
2021/06/16 04:42:18;;;;;;;8.23;2.60;;;;;;;22.20;43.08;101723.44;4979466;28;20030;-85
2021/06/16 04:44:44;;;;;;;9.45;2.65;;;;;;;22.17;42.81;101718.25;4979231;28;20117;-87
2021/06/16 04:47:09;;;;;;;8.25;3.13;;;;;;;22.12;42.63;101714.81;4963793;28;20031;-85
2021/06/16 04:49:35;;;;;;;10.45;2.55;;;;;;;22.14;42.51;101713.03;4979335;28;20137;-86
2021/06/16 04:52:01;;;;;;;9.85;2.40;;;;;;;22.14;42.61;101715.66;4995430;28;20027;-85
2021/06/16 04:54:26;;;;;;;11.13;2.88;;;;;;;22.11;42.43;101711.31;4996904;28;20049;-86
2021/06/16 04:56:51;;;;;;;8.68;2.30;;;;;;;22.11;42.49;101707.84;4995611;28;20022;-85
2021/06/16 04:59:17;;;;;;;6.68;2.80;;;;;;;22.13;42.47;101711.31;4979385;28;20042;-85
2021/06/16 05:01:42;;;;;;;13.00;2.42;;;;;;;22.12;42.57;101702.59;4979712;28;20504;-85
2021/06/16 05:04:08;;;;;;;8.13;2.65;;;;;;;22.16;42.34;101704.25;4997148;28;20042;-86
2021/06/16 05:06:33;;;;;;;6.95;2.67;;;;;;;22.12;42.47;101699.97;4997005;28;20030;-85
2021/06/16 05:08:59;;;;;;;8.60;2.60;;;;;;;22.05;42.68;101702.69;4996822;28;20027;-85
2021/06/16 05:11:24;;;;;;;9.48;2.67;;;;;;;22.06;42.50;101694.81;4996717;28;20113;-85
2021/06/16 05:13:50;;;;;;;9.20;2.60;;;;;;;22.18;42.25;101702.47;4979145;28;20022;-84
2021/06/16 05:16:15;;;;;;;13.52;2.45;;;;;;;22.14;42.45;101695.53;4996394;28;20038;-85
2021/06/16 05:18:43;;;;;;;8.82;2.78;;;;;;;22.18;42.30;101696.38;4995347;28;20038;-83
2021/06/16 05:21:09;;;;;;;9.77;2.83;;;;;;;22.20;42.60;101705.09;4979850;28;20027;-86
2021/06/16 05:23:35;;;;;;;7.90;2.38;;;;;;;22.26;42.74;101699.78;4996861;28;20029;-87
2021/06/16 05:26:00;;;;;;;7.18;2.47;;;;;;;22.28;42.84;101697.16;4979292;28;20130;-86
2021/06/16 05:28:26;;;;;;;8.90;2.70;;;;;;;22.30;42.83;101688.38;4979286;28;20470;-83
2021/06/16 05:30:51;;;;;;;12.68;2.80;;;;;;;22.34;42.93;101689.16;4979610;28;20030;-87
2021/06/16 05:33:16;;;;;;;10.23;2.50;;;;;;;22.34;42.79;101690.06;4979537;28;20062;-85
2021/06/16 05:35:42;;;;;;;10.18;2.83;;;;;;;22.36;42.95;101683.03;4979532;28;20069;-86
2021/06/16 05:38:11;;;;;;;6.47;2.50;;;;;;;22.38;42.87;101683.88;4996660;28;20034;-83
2021/06/16 05:40:36;;;;;;;7.97;2.63;;;;;;;22.45;42.85;101689.00;5000959;28;20025;-86
2021/06/16 05:43:02;;;;;;;8.32;2.90;;;;;;;22.50;42.99;101687.19;5007761;28;20085;-86
2021/06/16 05:45:28;;;;;;;7.15;2.40;;;;;;;22.50;42.79;101680.16;5008464;28;20466;-90
2021/06/16 05:47:53;;;;;;;8.88;2.45;;;;;;;22.51;42.96;101681.03;5006875;28;20061;-92
2021/06/16 05:50:19;;;;;;;11.50;2.70;;;;;;;22.53;43.12;101681.88;5007747;28;20037;-93
2021/06/16 05:52:45;;;;;;;8.85;2.80;;;;;;;22.55;43.13;101685.31;5003383;28;20532;-93
2021/06/16 05:55:10;;;;;;;10.52;2.55;;;;;;;22.62;42.93;101679.06;4983131;28;20030;-90
2021/06/16 05:57:36;;;;;;;10.18;2.78;;;;;;;22.61;43.05;101681.75;4998187;28;20026;-91
2021/06/16 06:00:05;;;;;;;11.15;2.65;;;;;;;22.57;43.14;101678.31;4999874;28;20030;-90
2021/06/16 06:02:30;;;;;;;10.35;2.70;;;;;;;22.62;42.87;101671.19;5000891;28;20022;-93
2021/06/16 06:04:55;;;;;;;11.95;2.55;;;;;;;22.64;42.61;101672.03;4998552;28;20389;-92
2021/06/16 06:07:22;;;;;;;11.00;2.83;;;;;;;22.65;42.38;101663.31;4998651;28;20026;-91
2021/06/16 06:09:48;;;;;;;6.53;2.15;;;;;;;22.70;42.44;101671.09;4998365;28;20509;-92
2021/06/16 06:12:14;;;;;;;11.05;2.58;;;;;;;22.74;42.05;101659.66;4997489;28;20037;-90
2021/06/16 06:14:39;;;;;;;9.10;2.42;;;;;;;22.82;42.06;101659.50;4996019;28;20030;-91
2021/06/16 06:17:05;;;;;;;8.43;2.65;;;;;;;22.78;41.75;101663.94;4997580;28;20041;-91
2021/06/16 06:19:31;;;;;;;7.55;2.30;;;;;;;22.83;41.80;101662.09;4997031;28;20491;-89
2021/06/16 06:21:56;;;;;;;8.15;2.50;;;;;;;22.84;41.77;101657.69;4963460;28;20030;-92
2021/06/16 06:24:21;;;;;;;13.50;2.72;;;;;;;22.90;41.33;101653.19;4996810;28;20101;-92
2021/06/16 06:26:47;;;;;;;9.23;2.53;;;;;;;22.92;41.45;101648.78;4997122;28;20026;-91
2021/06/16 06:29:12;;;;;;;10.32;2.30;;;;;;;22.96;41.08;101639.09;4997571;28;20068;-91
2021/06/16 06:31:38;;;;;;;11.73;2.70;;;;;;;23.02;40.81;101640.75;4998825;28;20060;-91
2021/06/16 06:34:03;;;;;;;10.05;2.60;;;;;;;23.05;40.84;101643.34;4998598;28;20086;-90
2021/06/16 06:36:29;;;;;;;7.97;2.45;;;;;;;23.07;40.92;101634.53;4996068;28;20042;-88
2021/06/16 06:38:54;;;;;;;10.35;2.63;;;;;;;23.10;41.05;101637.09;4996327;28;20121;-91
2021/06/16 06:41:20;;;;;;;9.43;2.38;;;;;;;23.18;40.88;101634.31;4996133;28;20026;-88
2021/06/16 06:43:45;;;;;;;12.35;2.92;;;;;;;23.21;40.68;101631.63;4995929;28;20023;-84
2021/06/16 06:46:12;;;;;;;6.38;2.20;;;;;;;23.17;41.06;101629.97;4996259;28;20032;-89
2021/06/16 06:48:38;;;;;;;14.20;2.92;;;;;;;23.19;40.96;101626.44;4996772;28;20027;-86
2021/06/16 06:51:04;;;;;;;10.63;2.50;;;;;;;23.22;40.96;101627.25;4985665;28;20054;-85
2021/06/16 06:53:30;;;;;;;9.52;2.90;;;;;;;23.24;40.50;101623.69;5011849;28;20453;-85
2021/06/16 06:55:59;;;;;;;6.65;2.30;;;;;;;23.29;40.89;101626.22;5015325;28;20053;-88
2021/06/16 06:58:25;;;;;;;8.30;2.30;;;;;;;23.37;40.33;101622.53;5012715;28;20021;-88
2021/06/16 07:00:51;;;;;;;12.32;2.80;;;;;;;23.38;40.14;101629.50;5004349;28;20082;-88
2021/06/16 07:03:16;;;;;;;10.50;2.63;;;;;;;23.35;40.56;101624.34;4999799;28;20050;-89
2021/06/16 07:05:42;;;;;;;7.57;2.20;;;;;;;23.38;40.26;101621.63;4996273;28;20085;-87
2021/06/16 07:08:07;;;;;;;8.43;2.33;;;;;;;23.44;39.76;101607.50;4995745;28;20114;-87
2021/06/16 07:10:32;;;;;;;12.93;2.38;;;;;;;23.48;39.64;101601.28;4978346;28;20425;-88
2021/06/16 07:12:58;;;;;;;13.25;2.30;;;;;;;23.49;39.67;101613.50;4962291;28;20034;-88
2021/06/16 07:15:24;;;;;;;6.85;2.13;;;;;;;23.50;39.28;101609.16;4964568;28;20050;-87
2021/06/16 07:17:50;;;;;;;12.85;2.30;;;;;;;23.52;39.27;101604.72;4980523;28;20397;-90
2021/06/16 07:20:16;;;;;;;10.98;2.60;;;;;;;23.53;39.47;101612.56;4995422;28;20030;-89
2021/06/16 07:22:43;;;;;;;13.32;2.72;;;;;;;23.55;39.36;101610.75;4995039;28;20026;-90
2021/06/16 07:25:09;;;;;;;10.45;2.72;;;;;;;23.64;38.82;101614.94;4994485;28;20031;-90
2021/06/16 07:27:34;;;;;;;12.50;2.42;;;;;;;23.68;38.67;101603.47;4996032;28;20030;-88
2021/06/16 07:30:04;;;;;;;13.55;2.35;;;;;;;23.69;38.72;101607.84;4978816;28;20184;-89
2021/06/16 07:32:29;;;;;;;10.35;2.40;;;;;;;23.65;39.29;101598.28;4994752;28;20022;-88
2021/06/16 07:34:54;;;;;;;9.65;2.50;;;;;;;23.72;39.06;101607.75;4979060;28;20037;-88
2021/06/16 07:37:20;;;;;;;13.00;2.40;;;;;;;23.76;39.14;101609.44;4995660;28;20059;-88
2021/06/16 07:39:45;;;;;;;8.52;2.58;;;;;;;23.80;39.20;101592.72;5001626;22;20081;-90
2021/06/16 07:42:12;;;;;;;9.00;2.03;;;;;;;23.82;38.69;101595.28;4978631;28;20050;-88
2021/06/16 07:44:38;;;;;;;9.98;2.53;;;;;;;23.90;38.48;101588.09;4995497;28;20050;-87
2021/06/16 07:47:03;;;;;;;7.55;2.10;;;;;;;23.93;38.71;101582.78;4994571;28;20034;-87
2021/06/16 07:49:29;;;;;;;8.63;2.00;;;;;;;23.95;38.69;101586.22;4994708;28;20057;-88
2021/06/16 07:51:54;;;;;;;6.78;1.98;;;;;;;23.95;38.58;101577.44;4996058;28;20081;-87
2021/06/16 07:54:21;;;;;;;6.15;1.92;;;;;;;23.95;38.77;101577.44;4996394;28;20034;-88
2021/06/16 07:56:46;;;;;;;8.95;2.13;;;;;;;24.01;38.49;101572.91;4979632;28;20366;-89
2021/06/16 07:59:12;;;;;;;5.20;1.95;;;;;;;23.99;38.38;101574.69;4980336;28;20118;-87
2021/06/16 08:01:38;;;;;;;6.35;1.98;;;;;;;23.93;38.32;101574.88;4996801;28;20058;-88
2021/06/16 08:04:03;;;;;;;5.43;1.80;;;;;;;23.98;38.04;101578.25;4995725;28;20097;-89
2021/06/16 08:06:29;;;;;;;6.05;2.00;;;;;;;23.96;38.42;101580.06;4994098;28;20045;-89
2021/06/16 08:08:55;;;;;;;7.47;2.00;;;;;;;24.02;38.05;101579.03;4994364;28;20118;-90
2021/06/16 08:11:22;;;;;;;5.40;1.85;;;;;;;23.95;38.62;101572.19;4994948;28;20076;-89
2021/06/16 08:13:48;;;;;;;10.85;2.30;;;;;;;24.00;38.64;101571.19;4998416;28;20027;-88
2021/06/16 08:16:14;;;;;;;11.75;2.08;;;;;;;24.03;38.24;101568.47;4998931;28;20027;-88
2021/06/16 08:18:40;;;;;;;9.57;2.15;;;;;;;24.03;38.09;101565.84;4999041;28;20031;-87
2021/06/16 08:21:06;;;;;;;9.88;2.22;;;;;;;24.02;38.44;101564.13;4998418;28;20153;-90
2021/06/16 08:23:32;;;;;;;9.23;2.08;;;;;;;24.09;38.24;101564.84;4982327;28;20437;-88
2021/06/16 08:25:57;;;;;;;6.60;1.92;;;;;;;24.08;38.20;101568.34;4998875;28;20493;-89
2021/06/16 08:28:22;;;;;;;6.57;2.13;;;;;;;24.13;38.18;101561.22;5001231;28;20458;-90
2021/06/16 08:30:48;;;;;;;6.70;1.92;;;;;;;24.15;37.91;101569.94;4999714;28;20037;-88
2021/06/16 08:33:13;;;;;;;5.03;1.85;;;;;;;24.11;38.09;101565.66;5000620;28;20054;-88
2021/06/16 08:35:42;;;;;;;6.85;1.88;;;;;;;24.11;38.27;101559.53;4982704;28;20470;-88
2021/06/16 08:38:07;;;;;;;6.88;1.80;;;;;;;24.17;38.37;101569.88;4998760;28;20030;-87
2021/06/16 08:40:33;;;;;;;5.57;2.00;;;;;;;24.17;38.44;101556.72;5003717;28;20052;-87
2021/06/16 08:42:58;;;;;;;6.32;1.80;;;;;;;24.15;38.21;101559.44;5001976;28;20421;-90
2021/06/16 08:45:24;;;;;;;7.55;1.80;;;;;;;24.13;38.49;101555.13;5001495;28;20026;-90
2021/06/16 08:47:51;;;;;;;5.30;1.95;;;;;;;24.12;38.30;101550.75;4968515;28;20090;-89
2021/06/16 08:50:18;;;;;;;6.97;2.00;;;;;;;24.09;38.07;101546.44;4998730;28;20030;-91
2021/06/16 08:52:45;;;;;;;6.85;1.95;;;;;;;24.18;38.10;101551.44;4998506;28;20022;-86
2021/06/16 08:55:13;;;;;;;5.63;2.00;;;;;;;24.19;38.51;101550.56;4998032;28;20022;-88
2021/06/16 08:57:41;;;;;;;6.30;2.05;;;;;;;24.21;38.36;101545.22;5009771;28;20065;-91
2021/06/16 09:00:08;;;;;;;6.97;2.15;;;;;;;24.21;37.95;101543.50;5007632;28;20030;-86
2021/06/16 09:02:34;;;;;;;6.18;2.03;;;;;;;24.19;38.40;101549.66;4998630;28;20027;-89
2021/06/16 09:05:00;;;;;;;8.77;2.15;;;;;;;24.24;38.42;101547.81;4998605;28;20034;-85
2021/06/16 09:07:30;;;;;;;3.85;1.60;;;;;;;24.23;38.27;101538.16;4999205;28;20539;-85
2021/06/16 09:10:17;;;;;;;7.28;2.10;;;;;;;24.17;38.52;101551.47;4999394;28;20030;-87
2021/06/16 09:12:48;;;;;;;7.95;2.15;;;;;;;24.16;38.90;101550.63;4997863;28;20023;-89
2021/06/16 09:15:16;;;;;;;5.90;2.13;;;;;;;24.21;39.07;101551.38;4998416;28;20489;-84
2021/06/16 09:17:58;;;;;;;6.10;2.33;;;;;;;24.18;38.92;101555.84;5002743;28;20053;-85
2021/06/16 09:20:24;;;;;;;7.10;2.30;;;;;;;24.19;38.97;101552.31;5007793;28;20101;-85
2021/06/16 09:23:06;;;;;;;9.75;2.40;;;;;;;24.17;39.20;101547.09;5012205;28;20030;-86
2021/06/16 09:25:31;;;;;;;8.43;2.17;;;;;;;24.16;39.04;101549.75;5004494;28;20030;-88
2021/06/16 09:27:57;;;;;;;8.60;2.15;;;;;;;24.18;39.52;101540.94;5002187;28;20083;-90
2021/06/16 09:30:22;;;;;;;8.38;2.10;;;;;;;24.23;39.17;101548.69;5000126;28;20036;-86
2021/06/16 09:32:53;;;;;;;5.15;2.10;;;;;;;24.16;39.47;101541.88;5001905;28;20393;-85
2021/06/16 09:35:19;;;;;;;5.30;1.95;;;;;;;24.17;39.29;101533.06;5003512;28;20026;-88
2021/06/16 09:37:44;;;;;;;7.93;2.45;;;;;;;24.15;39.51;101527.88;5000176;28;20036;-86
2021/06/16 09:43:32;;;;;;;5.43;2.00;;;;;;;24.10;39.77;101518.38;4999543;28;20042;-85
2021/06/16 09:46:03;;;;;;;6.32;2.33;;;;;;;24.17;39.50;101525.19;4997383;28;20038;-86
2021/06/16 09:48:46;;;;;;;6.80;2.30;;;;;;;24.19;39.59;101518.13;5000621;28;20023;-86
2021/06/16 09:51:13;;;;;;;3.55;1.98;;;;;;;24.20;39.70;101518.09;4999511;28;20082;-86
2021/06/16 09:54:14;;;;;;;7.72;2.17;;;;;;;24.13;39.79;101516.53;4998874;28;20041;-86
2021/06/16 09:57:06;;;;;;;3.15;1.80;;;;;;;24.07;40.12;101506.16;5000337;28;20030;-88
2021/06/16 09:59:43;;;;;;;3.42;2.13;;;;;;;24.06;40.26;101514.94;4943695;29;20539;-87
2021/06/16 10:02:17;;;;;;;4.30;2.65;;;;;;;24.07;39.99;101500.91;4983075;28;20113;-85
2021/06/16 10:04:45;;;;;;;6.00;2.72;;;;;;;24.03;39.97;101500.13;4998257;28;20023;-85
2021/06/16 10:07:21;;;;;;;5.15;2.78;;;;;;;24.06;40.34;101496.53;4997562;28;20076;-86
2021/06/16 10:10:12;;;;;;;6.72;2.75;;;;;;;24.08;40.42;101504.41;5001802;28;20050;-89
2021/06/16 10:12:46;;;;;;;7.65;2.60;;;;;;;24.07;40.60;101506.16;5000223;28;20049;-87
2021/06/16 10:15:18;;;;;;;4.38;2.72;;;;;;;24.10;40.59;101505.22;4982711;28;20516;-87
2021/06/16 10:17:45;;;;;;;6.47;3.15;;;;;;;24.09;39.97;101504.34;4999079;28;20482;-87
2021/06/16 10:20:13;;;;;;;4.43;2.70;;;;;;;24.09;40.19;101493.84;5000362;28;20057;-86
2021/06/16 10:22:44;;;;;;;8.13;3.20;;;;;;;24.11;40.11;101493.81;4999618;28;20038;-89
2021/06/16 10:25:10;;;;;;;5.43;2.97;;;;;;;24.10;40.59;101494.69;5000471;28;20038;-86
2021/06/16 10:27:40;;;;;;;5.60;2.67;;;;;;;24.14;40.36;101499.84;4996893;28;20489;-88
2021/06/16 10:30:13;;;;;;;5.18;2.90;;;;;;;24.14;40.07;101491.94;4997907;28;20038;-87
2021/06/16 10:32:48;;;;;;;6.38;2.70;;;;;;;24.14;40.13;101501.59;4979800;28;20030;-88
2021/06/16 10:35:35;;;;;;;4.90;2.85;;;;;;;24.10;40.13;101498.19;4997321;28;20019;-90
2021/06/16 10:38:19;;;;;;;6.43;2.85;;;;;;;24.09;40.54;101500.88;4997848;28;20018;-87
2021/06/16 10:40:53;;;;;;;7.82;2.85;;;;;;;24.10;39.97;101495.56;4996661;28;20049;-88
2021/06/16 10:43:29;;;;;;;3.63;2.63;;;;;;;24.13;39.99;101494.63;4996658;28;20496;-88
2021/06/16 10:45:56;;;;;;;5.15;2.95;;;;;;;24.15;40.23;101498.06;4995676;28;20033;-90
2021/06/16 10:48:42;;;;;;;6.32;2.50;;;;;;;24.12;40.46;101492.91;4995556;28;20145;-89
2021/06/16 10:51:09;;;;;;;6.07;2.63;;;;;;;24.11;40.08;101494.66;4997600;28;20026;-88
2021/06/16 10:53:34;;;;;;;3.95;2.70;;;;;;;24.13;40.31;101497.25;4996622;28;20049;-90
2021/06/16 10:56:04;;;;;;;5.78;2.67;;;;;;;24.12;40.01;101495.53;4997613;28;20030;-88
2021/06/16 10:58:31;;;;;;;4.15;2.30;;;;;;;24.16;40.27;101499.81;4996512;28;20057;-88
2021/06/16 11:01:16;;;;;;;5.20;2.83;;;;;;;24.16;40.44;101490.13;4999030;28;20034;-87
2021/06/16 11:03:54;;;;;;;3.45;2.60;;;;;;;24.13;40.27;101481.50;4995872;28;20127;-89
2021/06/16 11:06:37;;;;;;;6.68;2.80;;;;;;;24.08;40.59;101484.22;4998363;28;20053;-91
2021/06/16 11:09:07;;;;;;;;;;;;;;;24.08;40.44;101478.94;4999027;28;20115;-90
2021/06/16 11:11:51;;;;;;;4.32;2.50;;;;;;;24.10;40.16;101476.28;4997494;28;19909;-90
2021/06/16 11:14:38;;;;;;;6.45;2.70;;;;;;;24.09;40.37;101464.06;4996526;28;20058;-90
2021/06/16 11:17:08;;;;;;;4.78;2.55;;;;;;;24.08;40.34;101459.69;4996417;28;20026;-92
2021/06/16 11:19:36;;;;;;;5.47;2.58;;;;;;;24.07;40.72;101456.22;4995808;28;20034;-92
2021/06/16 11:22:05;;;;;;;5.35;2.65;;;;;;;24.09;40.48;101459.66;4995061;28;20385;-91
2021/06/16 11:25:08;;;;;;;7.22;2.70;;;;;;;24.09;40.72;101464.06;4997736;28;20430;-90
2021/06/16 11:28:03;;;;;;;4.15;2.50;;;;;;;24.09;40.57;101459.66;5003883;28;20030;-87
2021/06/16 11:30:40;;;;;;;2.75;2.35;;;;;;;24.08;40.63;101451.81;4999868;28;20030;-89
2021/06/16 11:33:14;;;;;;;7.47;2.60;;;;;;;24.11;40.96;101451.75;4996940;28;20030;-89